Time;durP1;ratioP1;P1;durP2;ratioP2;P2;SDS_P1;SDS_P2;PMS_P1;PMS_P2;Temp;Humidity;BMP_temperature;BMP_pressure;BME280_temperature;BME280_humidity;BME280_pressure;Samples;Min_cycle;Max_cycle;Signal;HPM_P1;HPM_P2
2023/04/27 00:00:23;;;;;;;;;16.33;8.33;;;;;13.50;55.80;101405.63;5079483;28;45390;-43
2023/04/27 00:02:49;;;;;;;;;12.00;9.67;;;;;13.51;55.20;101412.63;5079728;28;45365;-42
2023/04/27 00:05:14;;;;;;;;;13.00;12.00;;;;;13.47;56.31;101411.25;5079991;28;45274;-42
2023/04/27 00:07:40;;;;;;;;;12.67;11.33;;;;;13.47;56.17;101412.09;5079645;28;46019;-42
2023/04/27 00:10:06;;;;;;;;;15.67;10.67;;;;;13.42;56.55;101397.50;5079691;28;45440;-42
2023/04/27 00:12:32;;;;;;;;;12.67;7.67;;;;;13.54;56.25;101411.50;5079563;28;45266;-42
2023/04/27 00:14:58;;;;;;;;;11.67;8.33;;;;;13.53;56.40;101413.34;5078259;28;45460;-41
2023/04/27 00:17:23;;;;;;;;;13.00;7.00;;;;;13.53;56.43;101408.00;5079398;28;46892;-42
2023/04/27 00:19:48;;;;;;;;;8.33;7.67;;;;;13.52;56.61;101405.47;5079214;28;48027;-43
2023/04/27 00:22:14;;;;;;;;;8.33;8.33;;;;;13.53;56.10;101405.34;5079546;28;45450;-42
2023/04/27 00:24:40;;;;;;;;;8.67;6.33;;;;;13.52;56.41;101406.28;5079088;28;45240;-42
2023/04/27 00:27:06;;;;;;;;;10.00;8.00;;;;;13.52;56.10;101402.78;5079340;28;46095;-42
2023/04/27 00:29:31;;;;;;;;;16.67;8.33;;;;;13.53;56.01;101405.34;5079350;28;45275;-42
2023/04/27 00:31:56;;;;;;;;;7.33;6.67;;;;;13.52;56.23;101397.44;5080115;28;45264;-44
2023/04/27 00:34:22;;;;;;;;;12.00;7.67;;;;;13.51;55.91;101398.44;5079723;28;45360;-42
2023/04/27 00:36:47;;;;;;;;;10.67;8.00;;;;;13.46;56.07;101383.69;5077888;27;47286;-42
2023/04/27 00:39:12;;;;;;;;;9.33;7.33;;;;;13.46;56.32;101385.53;5079304;28;45353;-42
2023/04/27 00:41:38;;;;;;;;;10.00;8.00;;;;;13.49;56.70;101385.25;5079212;28;45468;-42
2023/04/27 00:44:04;;;;;;;;;9.67;9.00;;;;;13.49;55.88;101390.59;5079069;28;45294;-42
2023/04/27 00:46:30;;;;;;;;;12.00;7.00;;;;;13.46;55.84;101386.38;5078798;28;46330;-42
2023/04/27 00:48:55;;;;;;;;;9.67;8.67;;;;;13.45;56.05;101382.03;5079373;28;45394;-43
2023/04/27 00:51:21;;;;;;;;;8.67;8.67;;;;;13.45;56.39;101373.16;5079765;28;45347;-42
2023/04/27 00:53:50;;;;;;;;;12.00;9.00;;;;;13.37;56.44;101362.38;5079572;28;45379;-43
2023/04/27 00:56:16;;;;;;;;;13.00;9.00;;;;;13.47;56.70;101376.50;5078794;28;46419;-44
2023/04/27 00:58:41;;;;;;;;;5.00;4.33;;;;;13.45;56.11;101374.00;5078942;28;45238;-41
2023/04/27 01:01:08;;;;;;;;;8.67;7.33;;;;;13.46;56.69;101375.69;5078951;28;45261;-42
2023/04/27 01:03:33;;;;;;;;;10.33;8.00;;;;;13.47;56.50;101376.50;5079054;28;45362;-42
2023/04/27 01:06:00;;;;;;;;;7.67;7.00;;;;;13.36;56.52;101364.22;5078645;28;45913;-42
2023/04/27 01:08:26;;;;;;;;;11.00;6.33;;;;;13.45;56.78;101374.00;5078737;28;45350;-42
2023/04/27 01:10:52;;;;;;;;;8.67;8.33;;;;;13.45;56.71;101374.00;5077352;28;45430;-42
2023/04/27 01:13:17;;;;;;;;;9.67;7.33;;;;;13.45;56.66;101379.34;5078928;28;45403;-41
2023/04/27 01:15:42;;;;;;;;;15.00;8.00;;;;;13.42;57.24;101374.28;5078608;27;45338;-41
2023/04/27 01:18:08;;;;;;;;;11.00;7.67;;;;;13.31;56.67;101361.13;5078522;28;45330;-40
2023/04/27 01:20:35;;;;;;;;;11.67;7.00;;;;;13.40;57.42;101383.44;5078542;28;45418;-41
2023/04/27 01:23:00;;;;;;;;;8.00;6.33;;;;;13.37;57.59;101376.56;5078813;28;45434;-47
2023/04/27 01:25:25;;;;;;;;;9.33;6.33;;;;;13.43;57.70;101381.31;5078288;28;47189;-41
2023/04/27 01:27:51;;;;;;;;;13.67;7.67;;;;;13.42;57.64;101384.97;5078527;28;45507;-42
2023/04/27 01:30:16;;;;;;;;;8.00;8.00;;;;;13.40;57.24;101391.44;5078203;28;45843;-43
2023/04/27 01:32:41;;;;;;;;;14.00;8.00;;;;;13.34;57.63;101384.88;5078485;27;45764;-42
2023/04/27 01:35:07;;;;;;;;;8.00;8.00;;;;;13.34;58.38;101389.38;5077084;28;46239;-43
2023/04/27 01:37:33;;;;;;;;;10.67;8.00;;;;;13.31;58.24;101385.16;5078307;28;45533;-42
2023/04/27 01:39:59;;;;;;;;;8.33;7.33;;;;;13.27;58.01;101385.63;5078388;28;45330;-42
2023/04/27 01:42:24;;;;;;;;;8.00;8.00;;;;;13.23;57.23;101377.94;5078111;28;45322;-41
2023/04/27 01:44:50;;;;;;;;;12.33;11.00;;;;;13.19;58.04;101378.34;5077592;28;46232;-41
2023/04/27 01:47:16;;;;;;;;;10.00;8.00;;;;;13.15;58.42;101369.78;5078305;28;45338;-41
2023/04/27 01:49:41;;;;;;;;;10.33;9.33;;;;;13.13;58.27;101361.06;5078301;28;45471;-41
2023/04/27 01:52:07;;;;;;;;;12.00;10.33;;;;;13.09;57.98;101362.34;5078398;28;45258;-41
2023/04/27 01:54:32;;;;;;;;;8.67;8.00;;;;;13.08;58.20;101368.69;5077876;28;46144;-41
2023/04/27 01:56:58;;;;;;;;;16.33;12.00;;;;;13.05;58.59;101355.59;5077926;28;45506;-42
2023/04/27 01:59:23;;;;;;;;;11.67;11.00;;;;;12.93;58.86;101338.09;5078168;28;45298;-42
2023/04/27 02:01:48;;;;;;;;;12.33;12.33;;;;;13.02;59.11;101361.28;5078144;28;45337;-41
2023/04/27 02:04:14;;;;;;;;;14.67;12.00;;;;;12.92;58.67;101331.06;5077815;28;45176;-41
2023/04/27 02:06:40;;;;;;;;;14.00;13.00;;;;;13.01;58.67;101354.22;5077584;28;45820;-40
2023/04/27 02:09:05;;;;;;;;;10.67;10.67;;;;;12.97;58.77;101352.84;5077880;28;45420;-41
2023/04/27 02:11:31;;;;;;;;;13.33;10.33;;;;;12.96;58.36;101352.00;5077870;28;45567;-41
2023/04/27 02:13:56;;;;;;;;;11.00;8.33;;;;;12.96;58.98;101353.81;5077547;28;45951;-42
2023/04/27 02:16:22;;;;;;;;;14.00;10.33;;;;;12.91;58.59;101354.28;5077534;28;45340;-41
2023/04/27 02:18:48;;;;;;;;;14.67;11.33;;;;;12.95;59.35;101350.31;5077797;28;45352;-41
2023/04/27 02:21:13;;;;;;;;;12.00;10.67;;;;;12.96;58.66;101351.16;5077891;28;45590;-40
2023/04/27 02:23:38;;;;;;;;;12.67;12.00;;;;;12.93;58.62;101354.13;5077450;28;46108;-41
2023/04/27 02:26:04;;;;;;;;;14.00;9.33;;;;;12.84;59.21;101341.66;5077514;28;46105;-40
2023/04/27 02:28:31;;;;;;;;;13.00;11.00;;;;;12.90;59.35;101367.78;5077596;28;45432;-41
2023/04/27 02:30:56;;;;;;;;;15.67;10.33;;;;;12.92;57.94;101358.63;5077383;28;45352;-40
2023/04/27 02:33:21;;;;;;;;;10.67;10.00;;;;;12.92;58.62;101355.09;5077148;28;46163;-40
2023/04/27 02:35:47;;;;;;;;;14.67;12.00;;;;;12.89;59.13;101358.06;5077435;28;45417;-41
2023/04/27 02:38:12;;;;;;;;;12.33;10.00;;;;;12.91;58.34;101356.09;5077402;27;45338;-41
2023/04/27 02:40:38;;;;;;;;;11.00;10.67;;;;;12.94;58.92;101364.66;5077662;28;45310;-41
2023/04/27 02:43:03;;;;;;;;;14.33;11.00;;;;;12.95;58.90;101357.50;5077057;28;46214;-41
2023/04/27 02:45:28;;;;;;;;;17.33;12.00;;;;;12.95;58.72;101363.66;5076977;28;45290;-42
2023/04/27 02:47:54;;;;;;;;;13.00;12.00;;;;;12.93;58.36;101356.78;5077026;28;45227;-42
2023/04/27 02:50:19;;;;;;;;;17.33;11.67;;;;;12.89;58.45;101347.38;5075828;27;45288;-41
2023/04/27 02:52:44;;;;;;;;;13.00;10.00;;;;;12.92;58.80;101358.63;5077223;28;45370;-40
2023/04/27 02:55:10;;;;;;;;;19.33;16.00;;;;;12.92;58.62;101365.78;5077142;28;45252;-41
2023/04/27 02:57:35;;;;;;;;;18.67;12.67;;;;;12.85;58.39;101359.34;5077008;27;45378;-41
2023/04/27 03:00:01;;;;;;;;;15.67;13.00;;;;;12.89;59.02;101372.28;5059367;28;45528;-40
2023/04/27 03:02:26;;;;;;;;;15.67;14.00;;;;;12.89;58.85;101366.94;5076774;28;45531;-40
2023/04/27 03:04:55;;;;;;;;;17.67;13.00;;;;;12.89;59.23;101364.28;5075946;28;45283;-41
2023/04/27 03:07:21;;;;;;;;;18.67;13.67;;;;;12.89;58.54;101366.06;5077223;27;45397;-40
2023/04/27 03:09:46;;;;;;;;;14.33;10.33;;;;;12.90;58.93;101367.78;5076979;28;45323;-42
2023/04/27 03:12:11;;;;;;;;;16.67;10.33;;;;;12.89;59.49;101366.94;5076855;28;46228;-41
2023/04/27 03:14:37;;;;;;;;;15.33;10.67;;;;;12.87;59.37;101358.22;5076872;28;45376;-42
2023/04/27 03:17:02;;;;;;;;;18.00;13.33;;;;;12.84;59.41;101355.00;5076968;28;45327;-41
2023/04/27 03:19:28;;;;;;;;;19.67;15.00;;;;;12.88;59.73;101359.06;5075869;28;45361;-41
2023/04/27 03:21:53;;;;;;;;;17.33;12.67;;;;;12.88;59.65;101359.06;5076570;28;46059;-41
2023/04/27 03:24:18;;;;;;;;;17.00;11.00;;;;;12.89;59.03;101363.41;5076576;28;45298;-40
2023/04/27 03:26:44;;;;;;;;;16.33;13.00;;;;;12.89;59.34;101368.75;5076982;28;45491;-41
2023/04/27 03:29:09;;;;;;;;;19.33;15.67;;;;;12.78;59.79;101359.09;5077170;27;45483;-41
2023/04/27 03:31:34;;;;;;;;;17.00;11.67;;;;;12.91;59.47;101372.13;5076653;27;46105;-42
2023/04/27 03:34:00;;;;;;;;;17.00;14.00;;;;;12.88;59.52;101367.91;5076621;28;47709;-41
2023/04/27 03:36:26;;;;;;;;;13.67;13.00;;;;;12.88;59.97;101375.09;5076841;28;45394;-41
2023/04/27 03:38:51;;;;;;;;;16.33;13.00;;;;;12.89;59.91;101371.41;5076841;27;45276;-41
2023/04/27 03:41:16;;;;;;;;;17.33;10.67;;;;;12.90;59.59;101378.47;5076708;27;45194;-41
2023/04/27 03:43:42;;;;;;;;;16.67;15.00;;;;;12.89;59.49;101376.75;5076322;28;45145;-40
2023/04/27 03:46:08;;;;;;;;;15.00;11.67;;;;;12.71;60.24;101352.66;5075694;28;45226;-41
2023/04/27 03:48:33;;;;;;;;;14.33;13.33;;;;;12.83;59.96;101378.19;5077118;28;45316;-42
2023/04/27 03:51:00;;;;;;;;;18.33;13.00;;;;;12.81;60.19;101371.31;5076571;28;46204;-41
2023/04/27 03:53:25;;;;;;;;;15.33;12.67;;;;;12.75;60.49;101370.06;5076931;28;45698;-41
2023/04/27 03:55:51;;;;;;;;;16.67;15.67;;;;;12.74;60.43;101371.06;5076480;28;45290;-41
2023/04/27 03:58:16;;;;;;;;;14.33;11.00;;;;;12.69;60.43;101363.50;5077120;28;45446;-41
2023/04/27 04:00:42;;;;;;;;;16.00;13.00;;;;;12.66;60.67;101360.25;5079697;28;46543;-41
2023/04/27 04:03:07;;;;;;;;;16.67;14.00;;;;;12.62;60.38;101365.03;5079628;28;45497;-43
2023/04/27 04:05:32;;;;;;;;;14.67;13.00;;;;;12.59;60.80;101365.31;5080257;28;45276;-42
2023/04/27 04:07:58;;;;;;;;;16.00;12.67;;;;;12.58;60.41;101362.81;5080208;28;45308;-41
2023/04/27 04:10:24;;;;;;;;;13.00;9.33;;;;;12.55;60.56;101366.59;5079479;28;46961;-42
2023/04/27 04:12:50;;;;;;;;;11.00;9.33;;;;;12.53;61.01;101367.75;5079738;28;45438;-42
2023/04/27 04:15:16;;;;;;;;;15.67;15.00;;;;;12.41;60.93;101351.06;5079681;28;45480;-42
2023/04/27 04:17:41;;;;;;;;;19.67;15.67;;;;;12.48;60.55;101363.69;5079638;28;45315;-42
2023/04/27 04:20:10;;;;;;;;;21.00;13.67;;;;;12.47;60.12;101366.47;5079318;28;45418;-42
2023/04/27 04:22:36;;;;;;;;;17.00;15.67;;;;;12.43;61.19;101359.75;5079457;28;45382;-42
2023/04/27 04:25:02;;;;;;;;;16.00;13.00;;;;;12.42;61.39;101363.41;5079484;28;45395;-42
2023/04/27 04:27:28;;;;;;;;;17.33;13.33;;;;;12.43;60.80;101365.09;5079642;28;45343;-41
2023/04/27 04:29:54;;;;;;;;;11.67;11.33;;;;;12.45;61.44;101363.13;5079141;28;45937;-42
2023/04/27 04:32:21;;;;;;;;;19.67;13.00;;;;;12.46;60.99;101372.81;5079236;28;45419;-42
2023/04/27 04:34:50;;;;;;;;;19.33;12.33;;;;;12.42;60.55;101364.25;5079358;28;45311;-43
2023/04/27 04:37:17;;;;;;;;;17.33;15.67;;;;;12.46;60.90;101370.97;5079438;28;45466;-43
2023/04/27 04:39:43;;;;;;;;;13.33;12.67;;;;;12.53;61.05;101378.44;5078992;28;46983;-43
2023/04/27 04:42:08;;;;;;;;;11.33;11.00;;;;;12.51;60.92;101361.69;5078949;28;45411;-42
2023/04/27 04:44:34;;;;;;;;;17.00;13.67;;;;;12.54;61.10;101364.94;5079033;28;45509;-43
2023/04/27 04:46:59;;;;;;;;;16.67;11.00;;;;;12.58;61.02;101365.50;5079104;28;45329;-43
2023/04/27 04:49:25;;;;;;;;;21.00;14.67;;;;;12.58;61.19;101360.97;5078965;28;46149;-43
2023/04/27 04:51:50;;;;;;;;;15.33;13.00;;;;;12.58;60.12;101366.31;5078926;28;45263;-43
2023/04/27 04:54:15;;;;;;;;;13.00;11.00;;;;;12.57;60.36;101367.31;5079063;28;45216;-43
2023/04/27 04:56:41;;;;;;;;;17.67;13.67;;;;;12.54;59.59;101364.94;5079258;28;45424;-43
2023/04/27 04:59:06;;;;;;;;;16.33;13.67;;;;;12.54;60.45;101364.94;5078823;28;46326;-42
2023/04/27 05:01:32;;;;;;;;;20.33;13.00;;;;;12.56;60.20;101365.63;5078770;28;45285;-42
2023/04/27 05:03:57;;;;;;;;;20.33;16.00;;;;;12.55;60.49;101368.44;5078996;28;45444;-42
2023/04/27 05:06:23;;;;;;;;;21.00;14.00;;;;;12.54;60.53;101361.41;5070695;28;45430;-43
2023/04/27 05:08:48;;;;;;;;;19.67;16.67;;;;;12.57;60.27;101372.66;5078785;28;45259;-44
2023/04/27 05:11:13;;;;;;;;;16.67;13.33;;;;;12.57;60.15;101375.31;5078461;28;45517;-42
2023/04/27 05:13:39;;;;;;;;;17.33;17.00;;;;;12.59;60.25;101372.50;5078805;28;45452;-44
2023/04/27 05:16:05;;;;;;;;;20.00;13.33;;;;;12.58;60.52;101363.66;5078886;28;45374;-43
2023/04/27 05:18:31;;;;;;;;;20.00;16.67;;;;;12.62;60.49;101366.88;5078365;28;46497;-43
2023/04/27 05:20:56;;;;;;;;;21.67;17.33;;;;;12.62;60.59;101372.22;5078740;28;45438;-43
2023/04/27 05:23:22;;;;;;;;;14.67;12.67;;;;;12.66;60.28;101376.28;5078621;28;45928;-43
2023/04/27 05:25:47;;;;;;;;;13.67;13.00;;;;;12.57;59.90;101359.31;5060866;28;45368;-43
2023/04/27 05:28:12;;;;;;;;;17.33;16.33;;;;;12.70;59.85;101375.84;5078276;28;45388;-44
2023/04/27 05:30:38;;;;;;;;;16.00;15.00;;;;;12.79;60.39;101378.63;5078463;28;45335;-43
2023/04/27 05:33:04;;;;;;;;;17.00;13.33;;;;;12.79;59.96;101360.78;5078593;28;45490;-44
2023/04/27 05:35:30;;;;;;;;;16.67;13.33;;;;;12.87;59.89;101379.59;5078819;28;45177;-43
2023/04/27 05:37:56;;;;;;;;;15.33;13.67;;;;;12.94;59.91;101369.16;5078457;28;46153;-42
2023/04/27 05:40:21;;;;;;;;;19.67;15.67;;;;;12.95;59.74;101361.00;5078099;28;45458;-42
2023/04/27 05:42:48;;;;;;;;;15.33;15.33;;;;;12.97;59.70;101358.19;5078265;28;45362;-41
2023/04/27 05:45:13;;;;;;;;;22.00;18.00;;;;;12.91;59.60;101362.28;5078419;28;45432;-42
2023/04/27 05:47:38;;;;;;;;;12.00;12.00;;;;;12.95;59.76;101363.66;5078028;28;46954;-41
2023/04/27 05:50:05;;;;;;;;;17.33;13.33;;;;;12.97;59.17;101364.34;5078218;28;45424;-43
2023/04/27 05:52:30;;;;;;;;;16.33;15.00;;;;;12.98;58.87;101365.22;5078168;28;45433;-44
2023/04/27 05:54:57;;;;;;;;;17.67;13.00;;;;;13.04;58.96;101353.94;5078452;28;45468;-42
2023/04/27 05:57:23;;;;;;;;;20.00;14.67;;;;;13.14;59.11;101364.56;5078106;28;45355;-42
2023/04/27 05:59:49;;;;;;;;;25.67;17.00;;;;;13.22;58.90;101368.19;5077832;28;45493;-42
2023/04/27 06:02:14;;;;;;;;;16.67;12.00;;;;;13.32;58.42;101362.00;5077830;28;45275;-43
2023/04/27 06:04:39;;;;;;;;;15.67;14.67;;;;;13.44;58.70;101371.47;5078164;28;45219;-41
2023/04/27 06:07:10;;;;;;;;;21.33;14.00;;;;;13.51;59.01;101371.72;5077880;28;45535;-43
2023/04/27 06:09:35;;;;;;;;;17.67;17.67;;;;;13.54;58.77;101372.25;5077797;28;45402;-42
2023/04/27 06:12:03;;;;;;;;;18.33;14.00;;;;;13.59;58.95;101375.31;5077948;28;45501;-41
2023/04/27 06:14:28;;;;;;;;;16.33;13.67;;;;;13.60;58.56;101378.81;5077569;28;45501;-41
2023/04/27 06:16:54;;;;;;;;;20.00;14.33;;;;;13.59;58.64;101372.63;5077505;28;46029;-41
2023/04/27 06:19:19;;;;;;;;;24.33;16.33;;;;;13.60;58.70;101370.81;5077299;28;48894;-40
2023/04/27 06:21:45;;;;;;;;;19.67;13.00;;;;;13.57;58.42;101369.28;5077099;28;45282;-41
2023/04/27 06:24:10;;;;;;;;;23.33;15.33;;;;;13.64;58.49;101369.50;5077099;28;45536;-43
2023/04/27 06:26:35;;;;;;;;;12.33;12.33;;;;;13.71;58.67;101367.91;5077396;28;46333;-42
2023/04/27 06:29:03;;;;;;;;;15.00;12.00;;;;;13.71;58.23;101362.56;5077049;28;45354;-42
2023/04/27 06:31:28;;;;;;;;;17.67;17.67;;;;;13.76;58.00;101359.44;5077525;28;45380;-42
2023/04/27 06:33:53;;;;;;;;;19.00;12.00;;;;;13.87;58.29;101362.72;5077678;28;45331;-42
2023/04/27 06:36:19;;;;;;;;;17.67;15.67;;;;;13.92;58.06;101365.78;5077035;28;45256;-42
2023/04/27 06:38:45;;;;;;;;;16.00;12.67;;;;;14.08;57.30;101367.78;5077105;28;45376;-42
2023/04/27 06:41:10;;;;;;;;;14.67;13.33;;;;;14.24;57.00;101369.72;5077292;28;45431;-43
2023/04/27 06:43:35;;;;;;;;;17.00;13.33;;;;;14.36;56.45;101367.63;5076910;28;45303;-41
2023/04/27 06:46:01;;;;;;;;;17.67;13.67;;;;;14.41;56.35;101376.03;5077071;28;46068;-42
2023/04/27 06:48:27;;;;;;;;;19.33;14.33;;;;;14.40;56.25;101385.91;5076695;28;45463;-41
2023/04/27 06:50:52;;;;;;;;;21.67;15.67;;;;;14.32;56.22;101385.00;5077165;28;45391;-41
2023/04/27 06:53:17;;;;;;;;;14.67;13.67;;;;;14.28;55.91;101380.94;5077367;28;45340;-42
2023/04/27 06:55:43;;;;;;;;;13.67;11.33;;;;;14.32;56.33;101379.66;5076824;28;45477;-41
2023/04/27 06:58:08;;;;;;;;;17.33;11.67;;;;;14.37;55.86;101370.19;5077140;28;45394;-42
2023/04/27 07:00:34;;;;;;;;;16.00;14.67;;;;;14.44;55.80;101375.72;5077005;28;45537;-41
2023/04/27 07:02:59;;;;;;;;;16.00;15.00;;;;;14.58;55.81;101374.34;5076932;28;45196;-41
2023/04/27 07:05:24;;;;;;;;;20.00;14.33;;;;;14.81;54.75;101370.13;5076936;28;46016;-42
2023/04/27 07:07:50;;;;;;;;;13.00;12.67;;;;;15.06;54.82;101378.31;5076791;28;45494;-42
2023/04/27 07:10:15;;;;;;;;;26.00;18.67;;;;;15.29;53.63;101371.34;5076930;28;45279;-42
2023/04/27 07:12:41;;;;;;;;;16.00;13.33;;;;;15.48;52.98;101372.94;5077076;28;45213;-41
2023/04/27 07:15:07;;;;;;;;;18.33;13.67;;;;;15.62;52.35;101369.59;5076710;28;46288;-43
2023/04/27 07:17:33;;;;;;;;;19.00;15.00;;;;;15.74;51.96;101363.97;5076805;28;45264;-41
2023/04/27 07:20:00;;;;;;;;;17.67;13.67;;;;;16.17;51.10;101354.75;5076687;28;45339;-41
2023/04/27 07:22:25;;;;;;;;;20.00;14.33;;;;;16.63;49.81;101350.50;5076930;28;45454;-41
2023/04/27 07:24:51;;;;;;;;;15.67;11.00;;;;;16.90;49.04;101346.63;5076404;28;45308;-41
2023/04/27 07:27:16;;;;;;;;;20.33;16.00;;;;;17.18;47.66;101351.53;5076607;28;45318;-41
2023/04/27 07:29:42;;;;;;;;;15.33;13.33;;;;;17.53;47.64;101341.25;5076735;28;45288;-41
2023/04/27 07:32:08;;;;;;;;;15.67;10.00;;;;;18.13;46.40;101343.22;5076659;27;45516;-41
2023/04/27 07:34:33;;;;;;;;;13.00;11.00;;;;;18.65;44.83;101342.34;5079502;28;46008;-42
2023/04/27 07:37:00;;;;;;;;;14.67;11.00;;;;;19.17;43.88;101350.38;5080697;28;45391;-41
2023/04/27 07:39:26;;;;;;;;;11.33;9.00;;;;;19.59;41.91;101348.78;5080169;28;45306;-41
2023/04/27 07:41:51;;;;;;;;;11.67;11.33;;;;;20.03;41.38;101353.19;5080159;28;45577;-43
2023/04/27 07:44:18;;;;;;;;;12.00;10.00;;;;;20.47;40.03;101335.03;5079100;28;46004;-43
2023/04/27 07:46:43;;;;;;;;;14.00;10.25;;;;;21.02;40.62;101334.13;5079844;28;45241;-42
2023/04/27 07:49:09;;;;;;;;;10.25;6.75;;;;;21.64;37.42;101343.94;5079631;28;45453;-41
2023/04/27 07:51:35;;;;;;;;;9.75;8.00;;;;;22.08;37.32;101339.84;5079987;28;45376;-42
2023/04/27 07:54:02;;;;;;;;;8.00;7.00;;;;;22.28;42.39;101336.31;5080009;28;46282;-41
2023/04/27 07:56:27;;;;;;;;;7.00;6.25;;;;;22.30;35.84;101335.09;5079633;28;45439;-43
2023/04/27 07:58:52;;;;;;;;;9.00;7.50;;;;;22.34;38.71;101335.50;5080017;28;45323;-43
2023/04/27 08:01:18;;;;;;;;;9.75;6.75;;;;;22.17;35.43;101333.22;5079910;28;45295;-42
2023/04/27 08:03:43;;;;;;;;;7.50;6.25;;;;;22.44;37.35;101333.19;5079146;28;46081;-41
2023/04/27 08:06:08;;;;;;;;;4.50;4.50;;;;;23.09;34.53;101331.38;5079523;28;45325;-43
2023/04/27 08:08:34;;;;;;;;;5.50;5.50;;;;;24.47;33.63;101335.28;5079535;28;45490;-42
2023/04/27 08:10:59;;;;;;;;;7.75;5.00;;;;;25.57;33.40;101336.06;5079808;28;45325;-43
2023/04/27 08:13:24;;;;;;;;;8.00;7.00;;;;;26.18;29.86;101339.53;5079375;28;45273;-43
2023/04/27 08:15:50;;;;;;;;;7.75;6.00;;;;;26.26;28.84;101341.94;5079318;28;45331;-42
2023/04/27 08:18:16;;;;;;;;;13.00;10.75;;;;;26.03;30.34;101344.63;5079254;28;45347;-43
2023/04/27 08:20:42;;;;;;;;;6.40;6.40;;;;;27.14;29.40;101337.38;5079500;28;45297;-42
2023/04/27 08:23:07;;;;;;;;;9.00;5.50;;;;;28.76;26.37;101334.94;5079269;28;46201;-42
2023/04/27 08:25:35;;;;;;;;;7.00;6.00;;;;;29.70;25.23;101331.94;5079306;28;45324;-42
2023/04/27 08:28:01;;;;;;;;;6.20;6.20;;;;;29.98;24.61;101333.56;5079315;28;45454;-41
2023/04/27 08:30:26;;;;;;;;;5.50;5.25;;;;;30.33;24.59;101324.78;5079453;28;45371;-42
2023/04/27 08:32:53;;;;;;;;;7.75;7.75;;;;;30.42;23.46;101319.59;5079042;28;46118;-42
2023/04/27 08:35:18;;;;;;;;;6.20;5.00;;;;;32.16;22.43;101309.94;5079035;28;45430;-42
2023/04/27 08:37:44;;;;;;;;;6.00;4.50;;;;;32.33;21.93;101309.66;5079312;28;45307;-43
2023/04/27 08:40:10;;;;;;;;;5.25;5.25;;;;;32.57;22.59;101298.03;5079188;28;45451;-43
2023/04/27 08:42:35;;;;;;;;;4.25;3.75;;;;;33.23;24.23;101306.03;5078187;28;45285;-42
2023/04/27 08:45:01;;;;;;;;;6.25;5.25;;;;;33.96;20.42;101291.41;5077851;28;45419;-43
2023/04/27 08:47:26;;;;;;;;;7.50;5.75;;;;;34.73;18.83;101302.53;5079252;28;45255;-44
2023/04/27 08:49:52;;;;;;;;;9.25;6.50;;;;;35.25;24.15;101311.78;5079194;28;45157;-43
2023/04/27 08:52:17;;;;;;;;;6.50;4.00;;;;;35.87;18.61;101314.44;5078642;28;46127;-44
2023/04/27 08:54:43;;;;;;;;;7.00;5.75;;;;;36.33;19.31;101306.13;5078856;28;45284;-43
2023/04/27 08:57:13;;;;;;;;;7.25;5.50;;;;;36.39;19.28;101307.66;5077746;28;45363;-42
2023/04/27 08:59:39;;;;;;;;;6.80;4.80;;;;;35.36;21.48;101309.69;5079241;28;45166;-42
2023/04/27 09:02:05;;;;;;;;;5.60;5.00;;;;;35.02;18.29;101296.06;5079001;28;45447;-44
2023/04/27 09:04:40;;;;;;;;;5.00;5.00;;;;;34.70;19.96;101294.81;5078567;28;45323;-46
2023/04/27 09:07:14;;;;;;;;;5.40;5.40;;;;;35.14;19.39;101290.91;5079128;28;45404;-42
2023/04/27 09:09:40;;;;;;;;;5.40;4.20;;;;;34.97;19.46;101295.00;5079058;28;45268;-42
2023/04/27 09:12:20;;;;;;;;;6.25;5.00;;;;;34.41;19.99;101300.38;5078692;28;46159;-45
2023/04/27 09:15:03;;;;;;;;;5.80;5.80;;;;;34.36;20.00;101294.91;5078501;28;45471;-43
2023/04/27 09:17:29;;;;;;;;;8.80;5.20;;;;;33.91;19.60;101294.22;5078395;28;45280;-42
2023/04/27 09:20:11;;;;;;;;;9.60;6.60;;;;;34.50;20.55;101293.94;5078750;28;45296;-41
2023/04/27 09:22:44;;;;;;;;;7.80;6.60;;;;;35.15;19.38;101307.22;5078400;28;46975;-42
2023/04/27 09:25:21;;;;;;;;;6.00;6.00;;;;;35.30;19.02;101303.41;5077626;28;45494;-42
2023/04/27 09:27:46;;;;;;;;;6.80;6.40;;;;;35.84;18.43;101303.97;5078407;28;45409;-43
2023/04/27 09:30:13;;;;;;;;;11.50;7.25;;;;;35.76;18.77;101299.13;5078855;28;45205;-42
2023/04/27 09:32:38;;;;;;;;;6.00;5.00;;;;;36.38;18.74;101300.50;5078184;28;45439;-42
2023/04/27 09:35:20;;;;;;;;;9.50;7.00;;;;;35.36;20.03;101293.91;5078243;28;45285;-41
2023/04/27 09:37:46;;;;;;;;;7.40;6.00;;;;;35.18;21.29;101305.78;5078458;28;45439;-42
2023/04/27 09:40:12;;;;;;;;;6.00;5.00;;;;;35.00;19.11;101299.13;5078387;28;45590;-43
2023/04/27 09:42:38;;;;;;;;;5.20;4.00;;;;;34.20;20.44;101308.06;5077948;28;45457;-42
2023/04/27 09:45:06;;;;;;;;;6.00;5.75;;;;;34.09;20.26;101296.31;5078011;28;45566;-42
2023/04/27 09:47:32;;;;;;;;;7.00;6.00;;;;;33.96;19.85;101272.97;5077759;28;45312;-43
2023/04/27 09:49:59;;;;;;;;;7.40;5.00;;;;;34.67;19.66;101293.44;5078438;28;45324;-43
2023/04/27 09:52:26;;;;;;;;;5.20;5.20;;;;;35.26;21.33;101277.47;5077670;28;46162;-44
2023/04/27 09:54:56;;;;;;;;;7.50;4.75;;;;;35.45;19.18;101275.50;5077461;28;45204;-43
2023/04/27 09:57:45;;;;;;;;;7.40;5.00;;;;;35.59;19.47;101274.78;5076992;28;45396;-43
2023/04/27 10:00:30;;;;;;;;;7.20;5.20;;;;;36.27;18.55;101287.97;5078167;28;45507;-43
2023/04/27 10:03:06;;;;;;;;;6.40;4.40;;;;;36.12;19.73;101288.28;5077364;28;45465;-42
2023/04/27 10:05:58;;;;;;;;;4.80;4.80;;;;;36.13;18.75;101300.97;5077656;28;45269;-44
2023/04/27 10:08:24;;;;;;;;;6.00;4.00;;;;;35.21;19.05;101291.38;5077819;28;45343;-43
2023/04/27 10:10:51;;;;;;;;;6.00;5.75;;;;;35.38;19.07;101294.44;5077719;28;45458;-43
2023/04/27 10:13:25;;;;;;;;;8.00;6.60;;;;;36.11;19.52;101292.97;5077577;28;46081;-45
2023/04/27 10:15:51;;;;;;;;;5.80;5.80;;;;;36.48;18.57;101288.41;5077070;28;45263;-43
2023/04/27 10:18:29;;;;;;;;;4.60;4.00;;;;;36.79;18.32;101271.97;5077500;28;45224;-45
2023/04/27 10:20:55;;;;;;;;;2.80;2.80;;;;;37.08;18.34;101262.47;5077450;28;45369;-42
2023/04/27 10:23:23;;;;;;;;;5.25;5.25;;;;;36.94;18.54;101262.50;5077278;28;47077;-44
2023/04/27 10:25:48;;;;;;;;;4.20;4.00;;;;;37.61;17.89;101267.31;5077235;28;45308;-45
2023/04/27 10:28:17;;;;;;;;;4.50;3.75;;;;;38.59;17.16;101264.38;5077742;28;45445;-42
2023/04/27 10:30:48;;;;;;;;;4.80;3.80;;;;;39.42;16.04;101260.72;5077703;28;45452;-43
2023/04/27 10:33:21;;;;;;;;;9.00;5.00;;;;;40.05;15.98;101266.66;5076872;28;46330;-42
2023/04/27 10:35:57;;;;;;;;;6.20;5.00;;;;;40.82;15.14;101259.88;5077096;28;45408;-43
2023/04/27 10:38:29;;;;;;;;;5.80;4.60;;;;;41.62;15.86;101256.91;5077433;28;45466;-42
2023/04/27 10:41:00;;;;;;;;;7.60;4.60;;;;;42.05;14.98;101250.00;5077239;28;45492;-42
2023/04/27 10:43:27;;;;;;;;;5.80;5.80;;;;;42.42;15.40;101255.63;5076527;28;46227;-44
2023/04/27 10:45:53;;;;;;;;;4.20;4.00;;;;;42.60;13.75;101259.81;5076980;28;45266;-42
2023/04/27 10:48:19;;;;;;;;;6.60;6.60;;;;;42.59;13.71;101255.38;5077082;28;45506;-44
2023/04/27 10:50:45;;;;;;;;;6.50;6.50;;;;;42.42;13.82;101258.41;5077409;28;45308;-43
2023/04/27 10:53:11;;;;;;;;;7.00;5.40;;;;;42.44;13.83;101258.09;5058721;28;46172;-43
2023/04/27 10:55:36;;;;;;;;;8.75;7.00;;;;;42.59;13.54;101260.97;5076588;28;45727;-42
2023/04/27 10:58:03;;;;;;;;;6.50;5.00;;;;;42.55;13.88;101248.84;5076997;28;45316;-43
2023/04/27 11:00:29;;;;;;;;;6.00;6.00;;;;;42.78;14.97;101259.56;5076739;28;45437;-41
2023/04/27 11:03:07;;;;;;;;;13.60;8.40;;;;;42.00;14.74;101247.44;5076982;28;46077;-42
2023/04/27 11:05:33;;;;;;;;;6.80;5.80;;;;;41.37;14.55;101258.75;5076715;28;45313;-42
2023/04/27 11:08:05;;;;;;;;;4.50;3.50;;;;;41.98;15.47;101251.75;5078279;28;45270;-43
2023/04/27 11:10:32;;;;;;;;;3.00;3.00;;;;;42.91;13.99;101237.97;5080293;28;45396;-42
2023/04/27 11:12:57;;;;;;;;;3.00;3.00;;;;;43.50;14.11;101238.09;5069851;28;47006;-45